Time;durP1;ratioP1;P1;durP2;ratioP2;P2;SDS_P1;SDS_P2;PMS_P1;PMS_P2;Temp;Humidity;BMP_temperature;BMP_pressure;BME280_temperature;BME280_humidity;BME280_pressure;Samples;Min_cycle;Max_cycle;Signal;HPM_P1;HPM_P2
2022/11/19 00:00:09;;;;;;;20.65;18.52;;;1.30;99.90;;;;;;5035213;28;20041;-78
2022/11/19 00:02:48;;;;;;;19.92;17.85;;;1.40;99.90;;;;;;5024679;28;20057;-77
2022/11/19 00:05:28;;;;;;;21.63;19.33;;;1.40;99.90;;;;;;5022377;28;20495;-78
2022/11/19 00:08:08;;;;;;;21.13;18.92;;;1.30;99.90;;;;;;5029671;28;20041;-78
2022/11/19 00:10:41;;;;;;;21.13;19.02;;;1.30;99.90;;;;;;5027028;28;20483;-78
2022/11/19 00:13:20;;;;;;;22.25;19.23;;;1.30;99.90;;;;;;5034916;28;20048;-78
2022/11/19 00:16:04;;;;;;;21.58;19.38;;;1.30;99.90;;;;;;5035799;28;20491;-77
2022/11/19 00:18:41;;;;;;;20.48;18.38;;;1.30;99.90;;;;;;5035150;28;20044;-77
2022/11/19 00:21:12;;;;;;;19.77;17.65;;;1.30;99.90;;;;;;5027758;28;20457;-77
2022/11/19 00:23:38;;;;;;;19.98;17.85;;;1.30;99.90;;;;;;5016104;28;20069;-78
2022/11/19 00:26:09;;;;;;;19.13;17.15;;;1.30;99.90;;;;;;5032103;28;20069;-78
2022/11/19 00:28:35;;;;;;;20.50;18.40;;;1.30;99.90;;;;;;5034483;28;20551;-77
2022/11/19 00:31:06;;;;;;;19.05;17.15;;;1.20;99.90;;;;;;5034851;28;20033;-78
2022/11/19 00:33:33;;;;;;;19.80;17.80;;;1.30;99.90;;;;;;5042766;28;20044;-78
2022/11/19 00:36:00;;;;;;;18.98;17.08;;;1.20;99.90;;;;;;5034147;28;20514;-78
2022/11/19 00:38:25;;;;;;;19.63;17.63;;;1.20;99.90;;;;;;5032767;28;20095;-77
2022/11/19 00:40:52;;;;;;;18.50;16.60;;;1.20;99.90;;;;;;5027727;28;20068;-78
2022/11/19 00:46:02;;;;;;;17.63;15.82;;;1.20;99.90;;;;;;5036189;28;20083;-77
2022/11/19 00:48:28;;;;;;;19.00;17.10;;;1.20;99.90;;;;;;5024786;28;20064;-78
2022/11/19 00:50:53;;;;;;;18.67;16.77;;;1.20;99.90;;;;;;5045032;28;20127;-77
2022/11/19 00:53:19;;;;;;;18.58;16.45;;;1.20;99.90;;;;;;5014607;28;20034;-78
2022/11/19 00:55:44;;;;;;;18.67;16.67;;;1.20;99.90;;;;;;5031673;28;20041;-77
2022/11/19 00:58:10;;;;;;;17.95;16.15;;;1.20;99.90;;;;;;5053317;28;20129;-78
2022/11/19 01:00:36;;;;;;;17.70;15.90;;;1.20;99.90;;;;;;5030405;28;20033;-78
2022/11/19 01:03:02;;;;;;;18.08;16.17;;;1.30;99.90;;;;;;5014580;28;20037;-77
2022/11/19 01:05:28;;;;;;;18.20;16.33;;;1.30;99.90;;;;;;5032594;28;20060;-78
2022/11/19 01:07:53;;;;;;;17.35;15.55;;;1.20;99.90;;;;;;5044268;28;20038;-78
2022/11/19 01:10:19;;;;;;;17.42;15.63;;;1.20;99.90;;;;;;5022650;28;20029;-78
2022/11/19 01:15:28;;;;;;;17.95;16.08;;;1.20;99.90;;;;;;5039525;28;20669;-77
2022/11/19 01:17:54;;;;;;;16.85;15.15;;;1.20;99.90;;;;;;5027916;28;20209;-77
2022/11/19 01:20:19;;;;;;;14.65;13.07;;;1.20;99.90;;;;;;5046948;28;20033;-78
2022/11/19 01:22:45;;;;;;;16.73;15.02;;;1.20;99.90;;;;;;5047810;28;20040;-78
2022/11/19 01:25:11;;;;;;;16.05;14.35;;;1.20;99.90;;;;;;5033855;28;20048;-78
2022/11/19 01:27:37;;;;;;;15.95;14.25;;;1.20;99.90;;;;;;5025508;28;20044;-78
2022/11/19 01:30:04;;;;;;;16.92;15.20;;;1.20;99.90;;;;;;5049057;28;20032;-78
2022/11/19 01:32:29;;;;;;;15.05;13.55;;;1.20;99.90;;;;;;5023386;28;20042;-78
2022/11/19 01:34:55;;;;;;;15.70;13.95;;;1.10;99.90;;;;;;5031840;28;20035;-78
2022/11/19 01:37:21;;;;;;;15.15;13.65;;;1.10;99.90;;;;;;5041765;28;20560;-78
2022/11/19 01:39:46;;;;;;;15.85;13.70;;;1.10;99.90;;;;;;5032962;28;20823;-77
2022/11/19 01:42:48;;;;;;;13.15;11.75;;;1.10;99.90;;;;;;5025780;28;20045;-78
2022/11/19 01:45:27;;;;;;;12.60;11.30;;;1.10;99.90;;;;;;5041849;28;20049;-78
2022/11/19 01:47:55;;;;;;;13.10;11.77;;;1.10;99.90;;;;;;5027654;28;20083;-77
2022/11/19 01:50:22;;;;;;;13.18;11.82;;;1.10;99.90;;;;;;5030913;28;20037;-78
2022/11/19 01:52:48;;;;;;;13.20;11.55;;;1.10;99.90;;;;;;5044305;28;20483;-78
2022/11/19 01:55:15;;;;;;;12.38;11.15;;;1.00;99.90;;;;;;5036189;28;20085;-77
2022/11/19 01:57:41;;;;;;;12.52;11.23;;;1.00;99.90;;;;;;5024772;28;20048;-78
2022/11/19 02:00:07;;;;;;;11.50;10.30;;;1.00;99.90;;;;;;5021452;28;20033;-78
2022/11/19 02:02:33;;;;;;;12.25;10.98;;;1.00;99.90;;;;;;5029205;28;20037;-78
2022/11/19 02:05:00;;;;;;;12.27;10.20;;;1.00;99.90;;;;;;5036421;28;20117;-78
2022/11/19 02:07:28;;;;;;;11.45;9.80;;;0.90;99.90;;;;;;5027204;28;20427;-78
2022/11/19 02:10:05;;;;;;;10.63;9.10;;;0.90;99.90;;;;;;5020073;28;20132;-78
2022/11/19 02:12:42;;;;;;;11.13;10.02;;;0.90;99.90;;;;;;5053369;28;20120;-78
2022/11/19 02:15:21;;;;;;;10.65;9.55;;;0.90;99.90;;;;;;5041914;28;20060;-78
2022/11/19 02:18:43;;;;;;;9.85;8.77;;;0.90;99.90;;;;;;5031099;28;20037;-78
2022/11/19 02:21:20;;;;;;;10.18;8.10;;;0.90;99.90;;;;;;4930645;28;20117;-78
2022/11/19 02:24:08;;;;;;;8.70;7.80;;;0.90;99.90;;;;;;5025425;28;20041;-78
2022/11/19 02:26:36;;;;;;;8.48;7.53;;;0.90;99.90;;;;;;5038930;28;20118;-77
2022/11/19 02:29:16;;;;;;;9.15;7.63;;;0.80;99.90;;;;;;5046273;28;20388;-78
2022/11/19 02:32:15;;;;;;;8.35;7.53;;;0.80;99.90;;;;;;5034046;28;20037;-78
2022/11/19 02:34:56;;;;;;;8.27;7.30;;;0.80;99.90;;;;;;5047070;28;20068;-78
2022/11/19 02:37:32;;;;;;;9.55;7.60;;;0.80;99.90;;;;;;5043468;28;20120;-78
2022/11/19 02:40:22;;;;;;;9.23;8.02;;;0.80;99.90;;;;;;5039311;28;20041;-78
2022/11/19 02:43:15;;;;;;;8.30;7.43;;;0.70;99.90;;;;;;5027765;28;20041;-78
2022/11/19 02:45:57;;;;;;;8.88;7.30;;;0.70;99.90;;;;;;5042402;28;20076;-78
2022/11/19 02:48:26;;;;;;;8.32;7.47;;;0.80;99.90;;;;;;5030820;28;20033;-78
2022/11/19 02:50:56;;;;;;;7.93;7.13;;;0.70;99.90;;;;;;5025125;28;20034;-78
2022/11/19 02:53:24;;;;;;;8.15;6.90;;;0.70;99.90;;;;;;5041093;28;20045;-78
2022/11/19 03:04:30;;;;;;;7.78;6.65;;;0.60;99.90;;;;;;5041514;28;20068;-77
2022/11/19 03:07:06;;;;;;;3.28;2.42;;;0.60;99.90;;;;;;5030408;28;20079;-78
2022/11/19 03:09:34;;;;;;;8.95;7.30;;;0.60;99.90;;;;;;5052196;28;20045;-78
2022/11/19 03:12:22;;;;;;;8.20;7.10;;;0.50;99.90;;;;;;5051651;28;20036;-78
2022/11/19 03:18:31;;;;;;;8.88;7.22;;;0.50;99.90;;;;;;5042948;28;20330;-78
2022/11/19 03:21:31;;;;;;;7.72;6.93;;;0.40;99.90;;;;;;5049915;28;20041;-78
2022/11/19 03:24:01;;;;;;;8.30;6.95;;;0.40;99.90;;;;;;5043255;28;20051;-78
2022/11/19 03:26:35;;;;;;;7.53;6.75;;;0.30;99.90;;;;;;5032321;28;20036;-78
2022/11/19 03:29:08;;;;;;;8.93;7.72;;;0.40;99.90;;;;;;5045109;28;20036;-78
2022/11/19 03:31:35;;;;;;;8.15;7.35;;;0.30;99.90;;;;;;5041774;28;20041;-78
2022/11/19 03:34:04;;;;;;;8.55;6.88;;;0.20;99.90;;;;;;5050546;28;20117;-78
2022/11/19 03:36:35;;;;;;;8.70;7.57;;;0.20;99.90;;;;;;5040418;28;20052;-78
2022/11/19 03:39:06;;;;;;;8.18;6.95;;;0.20;99.90;;;;;;5020741;28;20103;-78
2022/11/19 03:41:34;;;;;;;8.35;7.32;;;0.10;99.90;;;;;;5026216;28;20045;-78
2022/11/19 03:44:07;;;;;;;8.43;7.53;;;0.10;99.90;;;;;;5050388;28;20073;-78
2022/11/19 03:46:35;;;;;;;4.90;3.63;;;0.10;99.90;;;;;;5026212;28;20082;-78
2022/11/19 03:49:03;;;;;;;7.90;6.88;;;0.00;99.90;;;;;;5050883;28;20499;-78
2022/11/19 03:51:39;;;;;;;3.67;2.83;;;0.00;99.90;;;;;;5050470;28;20040;-78
2022/11/19 03:54:05;;;;;;;3.13;2.30;;;0.00;99.90;;;;;;5046404;28;20380;-78
2022/11/19 03:56:36;;;;;;;3.90;3.00;;;-0.10;99.90;;;;;;5023439;28;20048;-78
2022/11/19 03:59:03;;;;;;;3.35;2.35;;;-0.10;99.90;;;;;;5030870;28;20488;-78
2022/11/19 04:01:29;;;;;;;10.70;8.75;;;-0.10;99.90;;;;;;5024860;28;20041;-79
2022/11/19 04:06:39;;;;;;;7.72;3.08;;;-0.20;99.90;;;;;;5050030;28;20132;-78
2022/11/19 04:09:05;;;;;;;9.70;8.45;;;-0.30;99.90;;;;;;5018381;28;20117;-79
2022/11/19 04:11:30;;;;;;;4.00;2.88;;;-0.30;99.90;;;;;;5014522;28;20146;-79
2022/11/19 04:13:56;;;;;;;5.85;3.30;;;-0.30;99.90;;;;;;5038401;28;20102;-78
2022/11/19 04:16:21;;;;;;;5.88;3.13;;;-0.30;99.90;;;;;;5031068;28;20483;-78
2022/11/19 04:18:47;;;;;;;10.07;8.80;;;-0.30;99.90;;;;;;5043600;28;20068;-78
2022/11/19 04:21:12;;;;;;;3.35;2.08;;;-0.40;99.90;;;;;;5034430;28;20488;-78
2022/11/19 04:23:38;;;;;;;3.13;1.80;;;-0.40;99.90;;;;;;5049859;28;20037;-78
2022/11/19 04:26:03;;;;;;;10.63;8.95;;;-0.50;99.90;;;;;;5026471;28;20037;-79
2022/11/19 04:28:29;;;;;;;4.05;2.25;;;-0.50;99.90;;;;;;5040339;28;20032;-79
2022/11/19 04:30:54;;;;;;;9.68;8.30;;;-0.50;99.90;;;;;;5027702;28;20098;-79
2022/11/19 04:33:20;;;;;;;4.82;3.03;;;-0.50;99.90;;;;;;5048997;28;20563;-79
2022/11/19 04:35:45;;;;;;;5.93;2.88;;;-0.50;99.90;;;;;;5029620;28;20041;-79
2022/11/19 04:38:11;;;;;;;9.55;8.43;;;-0.60;99.90;;;;;;5015219;28;20396;-79
2022/11/19 04:40:38;;;;;;;10.85;8.82;;;-0.60;99.90;;;;;;5015797;28;20393;-80
2022/11/19 04:43:03;;;;;;;4.45;2.53;;;-0.60;99.90;;;;;;5040983;28;20048;-79
2022/11/19 04:45:29;;;;;;;10.50;9.40;;;-0.60;99.90;;;;;;5051768;28;20065;-79
2022/11/19 04:47:54;;;;;;;10.07;8.90;;;-0.70;99.90;;;;;;5029813;28;20040;-79
2022/11/19 04:50:20;;;;;;;3.38;2.00;;;-0.70;99.90;;;;;;5016614;28;20041;-80
2022/11/19 04:52:45;;;;;;;9.20;8.20;;;-0.70;99.90;;;;;;5016852;28;20045;-79
2022/11/19 04:55:11;;;;;;;10.05;9.05;;;-0.70;99.90;;;;;;5053211;28;20036;-79
2022/11/19 04:57:37;;;;;;;3.65;2.15;;;-0.80;99.90;;;;;;5032213;28;20102;-79
2022/11/19 05:00:03;;;;;;;9.95;8.73;;;-0.80;99.90;;;;;;5031888;28;20033;-79
2022/11/19 05:02:28;;;;;;;9.85;8.60;;;-0.80;99.90;;;;;;5023665;28;20316;-79
2022/11/19 05:04:54;;;;;;;3.30;2.38;;;-0.80;99.90;;;;;;5046631;28;20402;-79
2022/11/19 05:07:19;;;;;;;10.38;8.60;;;-0.80;99.90;;;;;;5036555;28;20047;-79
2022/11/19 05:09:45;;;;;;;9.23;8.27;;;-0.90;99.90;;;;;;5034898;28;20119;-79
2022/11/19 05:12:10;;;;;;;9.50;8.02;;;-0.90;99.90;;;;;;5025506;28;20056;-79
2022/11/19 05:14:37;;;;;;;9.00;8.07;;;-0.90;99.90;;;;;;5033375;28;20033;-79
2022/11/19 05:17:03;;;;;;;4.38;2.67;;;-0.90;99.90;;;;;;5019302;28;20045;-79
2022/11/19 05:19:29;;;;;;;9.75;7.82;;;-1.00;99.90;;;;;;5032008;28;20045;-79
2022/11/19 05:21:55;;;;;;;5.63;3.25;;;-1.00;99.90;;;;;;5036398;28;20483;-79
2022/11/19 05:24:20;;;;;;;5.53;2.92;;;-1.00;99.90;;;;;;5029891;28;20094;-79
2022/11/19 05:26:46;;;;;;;2.28;2.03;;;-1.00;99.90;;;;;;5034007;28;20049;-79
2022/11/19 05:29:11;;;;;;;7.28;3.38;;;-1.00;99.90;;;;;;5036880;28;20442;-79
2022/11/19 05:31:37;;;;;;;9.68;3.47;;;-1.10;99.90;;;;;;5055177;28;20395;-79
2022/11/19 05:34:02;;;;;;;3.63;2.47;;;-1.10;99.90;;;;;;5038990;28;20059;-79
2022/11/19 05:36:28;;;;;;;5.22;3.05;;;-1.10;99.90;;;;;;5046588;28;20478;-79
2022/11/19 05:38:53;;;;;;;3.70;2.63;;;-1.10;99.90;;;;;;5054395;28;20037;-78
2022/11/19 05:41:19;;;;;;;3.15;2.53;;;-1.20;99.90;;;;;;5038456;28;20064;-79
2022/11/19 05:43:44;;;;;;;4.70;3.08;;;-1.10;99.90;;;;;;5054338;28;20032;-79
2022/11/19 05:46:10;;;;;;;9.05;8.13;;;-1.10;99.90;;;;;;5029916;28;20028;-79
2022/11/19 05:48:35;;;;;;;6.65;3.38;;;-1.10;99.90;;;;;;5030994;28;20549;-79
2022/11/19 05:51:01;;;;;;;10.55;8.75;;;-1.10;99.90;;;;;;5039180;28;20056;-79
2022/11/19 05:53:26;;;;;;;7.75;3.70;;;-1.20;99.90;;;;;;5046045;28;20053;-79
2022/11/19 05:55:52;;;;;;;7.75;4.13;;;-1.20;99.90;;;;;;5057036;28;20037;-79
2022/11/19 05:58:17;;;;;;;8.85;7.90;;;-1.20;99.90;;;;;;5021455;28;20041;-79
2022/11/19 06:00:43;;;;;;;5.78;3.10;;;-1.30;99.90;;;;;;5029060;28;20044;-79
2022/11/19 06:03:09;;;;;;;5.22;2.83;;;-1.20;99.90;;;;;;5031887;28;20040;-79
2022/11/19 06:05:35;;;;;;;3.58;2.45;;;-1.30;99.90;;;;;;5031471;28;20044;-79
2022/11/19 06:08:00;;;;;;;7.03;3.35;;;-1.30;99.90;;;;;;5062007;28;20037;-79
2022/11/19 06:10:26;;;;;;;6.15;2.83;;;-1.40;99.90;;;;;;5047487;28;20071;-79
2022/11/19 06:12:51;;;;;;;5.72;3.20;;;-1.40;99.90;;;;;;5020974;28;20045;-79
2022/11/19 06:15:17;;;;;;;3.03;1.92;;;-1.40;99.90;;;;;;5032394;28;20048;-79
2022/11/19 06:17:43;;;;;;;6.13;3.33;;;-1.40;99.90;;;;;;5035970;28;20041;-79
2022/11/19 06:20:09;;;;;;;9.75;8.25;;;-1.40;99.90;;;;;;5030444;28;20502;-79
2022/11/19 06:22:36;;;;;;;7.70;3.83;;;-1.40;99.90;;;;;;5045384;28;20045;-79
2022/11/19 06:25:03;;;;;;;5.75;3.40;;;-1.40;99.90;;;;;;5050429;28;20040;-79
2022/11/19 06:27:29;;;;;;;5.32;2.63;;;-1.50;99.90;;;;;;5031828;28;20041;-79
2022/11/19 06:29:55;;;;;;;4.80;3.15;;;-1.50;99.90;;;;;;5041861;28;20086;-79
2022/11/19 06:32:20;;;;;;;5.57;3.17;;;-1.50;99.90;;;;;;5056272;28;20052;-79
2022/11/19 06:34:46;;;;;;;11.07;9.63;;;-1.50;99.90;;;;;;5055399;28;20449;-79
2022/11/19 06:37:11;;;;;;;6.63;4.00;;;-1.50;99.90;;;;;;5041150;28;20068;-79
2022/11/19 06:39:37;;;;;;;4.22;2.97;;;-1.50;99.90;;;;;;5037333;28;20727;-79
2022/11/19 06:44:47;;;;;;;6.25;3.42;;;-1.50;99.90;;;;;;5055155;28;20045;-79
2022/11/19 06:47:13;;;;;;;7.88;4.97;;;-1.50;99.90;;;;;;5032142;28;20033;-78
2022/11/19 06:49:38;;;;;;;8.10;3.85;;;-1.50;99.90;;;;;;5055920;28;20044;-78
2022/11/19 06:52:07;;;;;;;7.95;4.63;;;-1.60;99.90;;;;;;5050762;28;20498;-79
2022/11/19 06:54:32;;;;;;;5.18;3.58;;;-1.50;99.90;;;;;;5037866;28;20163;-78
2022/11/19 06:56:58;;;;;;;4.20;2.75;;;-1.50;99.90;;;;;;5033540;28;20064;-78
2022/11/19 06:59:24;;;;;;;7.30;4.15;;;-1.50;99.90;;;;;;5032107;28;20048;-78
2022/11/19 07:01:49;;;;;;;8.50;4.05;;;-1.50;99.90;;;;;;5046570;28;20120;-78
2022/11/19 07:04:15;;;;;;;6.35;4.35;;;-1.50;99.90;;;;;;5054156;28;20040;-78
2022/11/19 07:06:41;;;;;;;6.55;4.47;;;-1.50;99.90;;;;;;5045618;28;20067;-79
2022/11/19 07:09:06;;;;;;;6.15;4.50;;;-1.60;99.90;;;;;;5039969;28;20045;-79
2022/11/19 07:11:32;;;;;;;9.48;4.93;;;-1.60;99.90;;;;;;5033069;28;20111;-78
2022/11/19 07:13:57;;;;;;;10.68;5.40;;;-1.60;99.90;;;;;;5026697;28;20036;-79
2022/11/19 07:16:29;;;;;;;8.95;5.15;;;-1.70;99.90;;;;;;5042926;28;20025;-79
2022/11/19 07:18:59;;;;;;;10.75;5.68;;;-1.70;99.90;;;;;;5030482;28;20487;-79
2022/11/19 07:21:26;;;;;;;9.10;5.10;;;-1.70;99.90;;;;;;5034099;28;20037;-79
2022/11/19 07:23:52;;;;;;;14.77;12.63;;;-1.60;99.90;;;;;;5050007;28;20033;-79
2022/11/19 07:26:18;;;;;;;14.20;12.73;;;-1.70;99.90;;;;;;5056019;28;20629;-79
2022/11/19 07:28:43;;;;;;;14.50;12.63;;;-1.70;99.90;;;;;;5039391;28;20116;-78
2022/11/19 07:31:09;;;;;;;5.40;4.20;;;-1.70;99.90;;;;;;5038992;28;20068;-78
2022/11/19 07:33:37;;;;;;;7.53;5.03;;;-1.70;99.90;;;;;;5040509;28;20037;-78
2022/11/19 07:36:04;;;;;;;6.35;4.30;;;-1.70;99.90;;;;;;5050993;28;20044;-79
2022/11/19 07:38:29;;;;;;;7.72;4.10;;;-1.70;99.90;;;;;;5050590;28;20044;-79
2022/11/19 07:40:55;;;;;;;15.68;14.07;;;-1.60;99.90;;;;;;5033018;28;20033;-79
2022/11/19 07:43:22;;;;;;;15.27;13.70;;;-1.60;99.90;;;;;;5039969;28;20215;-79
2022/11/19 07:45:47;;;;;;;12.23;6.15;;;-1.60;99.90;;;;;;5045764;28;20036;-79
2022/11/19 07:48:13;;;;;;;15.43;13.82;;;-1.50;99.90;;;;;;5033969;28;20090;-79
2022/11/19 07:50:39;;;;;;;15.40;13.60;;;-1.60;99.90;;;;;;5035859;28;20043;-78
2022/11/19 07:53:06;;;;;;;10.07;5.68;;;-1.60;99.90;;;;;;5044381;28;20534;-78
2022/11/19 07:55:32;;;;;;;7.47;4.65;;;-1.50;99.90;;;;;;5040875;28;20531;-78
2022/11/19 07:58:00;;;;;;;7.07;4.05;;;-1.50;99.90;;;;;;5032567;28;20073;-78
2022/11/19 08:00:26;;;;;;;10.07;5.00;;;-1.40;99.90;;;;;;5044511;28;20123;-78
2022/11/19 08:02:51;;;;;;;16.38;14.60;;;-1.40;99.90;;;;;;5031012;28;20057;-79
2022/11/19 08:05:17;;;;;;;9.10;5.10;;;-1.30;99.90;;;;;;5032226;28;20131;-75
2022/11/19 08:07:43;;;;;;;11.23;6.00;;;-1.30;99.90;;;;;;5049326;28;20122;-77
2022/11/19 08:10:09;;;;;;;10.60;5.88;;;-1.30;99.90;;;;;;5037167;28;20037;-75
2022/11/19 08:12:35;;;;;;;13.40;6.22;;;-1.30;99.90;;;;;;5033591;28;20037;-76
2022/11/19 08:15:01;;;;;;;15.88;14.27;;;-1.20;99.90;;;;;;5051169;28;20040;-78
2022/11/19 08:20:11;;;;;;;11.88;6.43;;;-1.20;99.90;;;;;;5037285;28;20076;-79
2022/11/19 08:22:37;;;;;;;14.18;7.28;;;-1.10;99.90;;;;;;5051009;28;20041;-78
2022/11/19 08:25:03;;;;;;;15.30;13.70;;;-1.10;99.90;;;;;;5059121;28;20044;-78
2022/11/19 08:27:29;;;;;;;16.10;14.35;;;-1.00;99.90;;;;;;5052913;28;20052;-79
2022/11/19 08:29:54;;;;;;;9.55;6.88;;;-0.90;99.90;;;;;;5037124;28;20471;-79
2022/11/19 08:32:20;;;;;;;10.85;6.90;;;-0.90;99.90;;;;;;5037397;28;20045;-78
2022/11/19 08:34:45;;;;;;;9.55;5.20;;;-0.90;99.90;;;;;;5039127;28;20036;-79
2022/11/19 08:37:12;;;;;;;15.13;6.63;;;-0.80;99.90;;;;;;5019735;28;20073;-78
2022/11/19 08:39:39;;;;;;;14.77;13.20;;;-0.80;99.90;;;;;;5033604;28;20041;-78
2022/11/19 08:44:54;;;;;;;14.93;13.32;;;-0.70;99.90;;;;;;5040443;28;20124;-79
2022/11/19 08:47:19;;;;;;;10.65;6.28;;;-0.70;99.90;;;;;;5035779;28;20032;-80
2022/11/19 08:49:45;;;;;;;14.82;12.98;;;-0.60;99.90;;;;;;5052461;28;20032;-79
2022/11/19 08:52:12;;;;;;;13.52;12.13;;;-0.70;99.90;;;;;;5061260;28;20044;-79
2022/11/19 08:54:37;;;;;;;14.63;13.02;;;-0.70;99.90;;;;;;5032685;28;20087;-78
2022/11/19 08:57:03;;;;;;;11.15;5.55;;;-0.60;99.90;;;;;;5054987;28;20036;-79
2022/11/19 08:59:28;;;;;;;7.00;5.00;;;-0.60;99.90;;;;;;5035183;28;20515;-79
2022/11/19 09:01:54;;;;;;;13.82;12.32;;;-0.60;99.90;;;;;;5042945;28;20522;-78
2022/11/19 09:04:20;;;;;;;7.53;4.90;;;-0.50;99.90;;;;;;5037037;28;20040;-77
2022/11/19 09:06:45;;;;;;;7.75;5.25;;;-0.50;99.90;;;;;;5035496;28;20037;-79
2022/11/19 09:09:11;;;;;;;10.48;4.97;;;-0.50;99.90;;;;;;5059771;28;20463;-79
2022/11/19 09:11:36;;;;;;;6.25;4.43;;;-0.40;99.90;;;;;;5037541;28;20232;-78
2022/11/19 09:14:02;;;;;;;12.23;10.98;;;-0.30;99.90;;;;;;5053291;28;20037;-79
2022/11/19 09:16:28;;;;;;;7.10;4.72;;;-0.30;99.90;;;;;;5045122;28;20037;-79
2022/11/19 09:18:53;;;;;;;6.85;4.53;;;-0.30;99.90;;;;;;5031810;28;20072;-79
2022/11/19 09:21:19;;;;;;;5.45;3.53;;;-0.30;99.90;;;;;;5029482;28;20068;-79
2022/11/19 09:23:44;;;;;;;6.93;4.10;;;-0.20;99.90;;;;;;5024160;28;20132;-79
2022/11/19 09:26:13;;;;;;;8.40;5.05;;;-0.20;99.90;;;;;;5037194;28;20037;-79
2022/11/19 09:28:39;;;;;;;7.40;4.38;;;-0.10;99.90;;;;;;5024852;28;20052;-79
2022/11/19 09:31:07;;;;;;;11.35;10.15;;;-0.10;99.90;;;;;;5048011;28;20033;-80
2022/11/19 09:33:36;;;;;;;11.32;10.23;;;-0.10;99.90;;;;;;5018945;28;20041;-79
2022/11/19 09:36:02;;;;;;;11.73;10.52;;;0.00;99.90;;;;;;5034619;28;20052;-78
2022/11/19 09:38:30;;;;;;;11.23;10.13;;;0.10;99.90;;;;;;5037742;28;20437;-80
2022/11/19 09:40:59;;;;;;;10.23;5.30;;;0.20;99.90;;;;;;5032716;28;20048;-79
2022/11/19 09:43:57;;;;;;;8.73;4.53;;;0.30;99.90;;;;;;5055341;28;20037;-80
2022/11/19 09:46:39;;;;;;;4.63;3.55;;;0.30;99.90;;;;;;5060099;28;20246;-79
2022/11/19 09:49:12;;;;;;;5.90;4.18;;;0.40;99.90;;;;;;5051865;28;20106;-79
2022/11/19 09:51:41;;;;;;;11.30;9.80;;;0.40;99.90;;;;;;5027243;28;20064;-79
2022/11/19 09:54:17;;;;;;;10.18;9.18;;;0.50;99.90;;;;;;5018678;28;20068;-80
2022/11/19 09:56:44;;;;;;;10.63;9.45;;;0.50;99.90;;;;;;5020864;28;20042;-79
2022/11/19 09:59:31;;;;;;;9.98;8.88;;;0.60;99.90;;;;;;5046605;28;20041;-78
2022/11/19 10:01:57;;;;;;;6.20;3.75;;;0.60;99.90;;;;;;5060149;28;20047;-79
2022/11/19 10:04:29;;;;;;;9.98;8.98;;;0.60;99.90;;;;;;5055516;28;20033;-78
2022/11/19 10:07:10;;;;;;;10.50;9.35;;;0.70;99.90;;;;;;5022050;28;20052;-79
2022/11/19 10:10:01;;;;;;;4.88;3.55;;;0.70;99.90;;;;;;5026789;28;20447;-79
2022/11/19 10:13:10;;;;;;;9.15;8.25;;;0.80;99.90;;;;;;5035529;28;20094;-79
2022/11/19 10:16:09;;;;;;;9.27;8.30;;;0.90;99.90;;;;;;5047758;28;20470;-79
2022/11/19 10:18:56;;;;;;;9.48;8.32;;;1.00;99.90;;;;;;5035463;28;20106;-79
2022/11/19 10:21:28;;;;;;;10.43;8.80;;;1.10;99.90;;;;;;5039815;28;20073;-79
2022/11/19 10:24:16;;;;;;;10.03;8.90;;;1.10;99.90;;;;;;5054023;28;20483;-79
2022/11/19 10:26:46;;;;;;;9.85;8.85;;;1.20;99.90;;;;;;5037837;28;20119;-77
2022/11/19 10:29:18;;;;;;;9.48;8.07;;;1.30;99.90;;;;;;5053345;28;20032;-77
2022/11/19 10:31:47;;;;;;;8.90;7.97;;;1.30;99.90;;;;;;5052614;28;20429;-76
2022/11/19 10:34:18;;;;;;;9.27;8.38;;;1.40;99.90;;;;;;5032793;28;20029;-78
2022/11/19 10:36:51;;;;;;;10.05;8.32;;;1.40;99.90;;;;;;5045778;28;20120;-78
2022/11/19 10:39:35;;;;;;;9.18;8.10;;;1.50;99.90;;;;;;5045024;28;20041;-77
2022/11/19 10:42:37;;;;;;;10.05;8.70;;;1.60;99.90;;;;;;5037823;28;20033;-77
2022/11/19 10:45:21;;;;;;;9.18;7.82;;;1.60;99.90;;;;;;5034759;28;20506;-77
2022/11/19 10:48:20;;;;;;;8.30;7.40;;;1.70;99.90;;;;;;5052796;28;20471;-77
2022/11/19 10:50:45;;;;;;;9.25;8.32;;;1.70;99.90;;;;;;5050406;28;20032;-78
2022/11/19 10:53:21;;;;;;;8.60;7.70;;;1.70;99.90;;;;;;5051581;28;20041;-78
2022/11/19 10:55:53;;;;;;;8.80;7.90;;;1.80;99.90;;;;;;5033168;28;20079;-77
2022/11/19 10:58:25;;;;;;;;;;;1.80;99.90;;;;;;5049314;28;20072;-78
2022/11/19 11:00:56;;;;;;;8.60;7.70;;;1.80;99.90;;;;;;5046443;28;19920;-76
2022/11/19 11:03:35;;;;;;;9.40;7.93;;;1.90;99.90;;;;;;5062366;28;20044;-77
2022/11/19 11:06:08;;;;;;;7.82;7.03;;;2.00;99.90;;;;;;5040222;28;20049;-78
2022/11/19 11:08:50;;;;;;;7.65;6.93;;;2.00;99.90;;;;;;5032281;28;20546;-78
2022/11/19 11:11:25;;;;;;;8.60;7.80;;;2.10;99.90;;;;;;5049538;28;20033;-78
2022/11/19 11:16:44;;;;;;;8.57;7.22;;;2.10;99.90;;;;;;5053172;28;20045;-76
2022/11/19 11:19:13;;;;;;;7.80;6.90;;;2.20;99.90;;;;;;5048714;28;20300;-77
2022/11/19 11:21:42;;;;;;;8.70;7.78;;;2.30;99.90;;;;;;5049294;28;20041;-78
2022/11/19 11:24:09;;;;;;;8.70;7.85;;;2.40;99.90;;;;;;5029889;28;20040;-77
2022/11/19 11:26:36;;;;;;;8.50;7.60;;;2.50;99.90;;;;;;5034377;28;20033;-77
2022/11/19 11:29:24;;;;;;;8.07;7.22;;;2.70;99.90;;;;;;5051165;28;20506;-78
2022/11/19 11:31:49;;;;;;;8.55;7.65;;;2.90;99.90;;;;;;5047305;28;20037;-78
2022/11/19 11:34:24;;;;;;;8.50;7.57;;;3.10;99.90;;;;;;5046210;28;20062;-78
2022/11/19 11:36:50;;;;;;;8.00;7.13;;;3.30;99.90;;;;;;5049406;28;20064;-78
2022/11/19 11:39:47;;;;;;;9.60;8.05;;;3.40;99.90;;;;;;5053325;28;20503;-78
2022/11/19 11:42:17;;;;;;;8.55;6.88;;;3.60;99.90;;;;;;5055624;28;20057;-78
2022/11/19 11:44:52;;;;;;;8.48;7.53;;;3.70;96.40;;;;;;5034059;28;20152;-77
2022/11/19 11:47:25;;;;;;;8.30;7.50;;;3.70;99.50;;;;;;5057405;28;20048;-79
2022/11/19 11:50:11;;;;;;;7.82;6.95;;;3.80;96.60;;;;;;5037673;28;20056;-79
2022/11/19 11:52:46;;;;;;;8.45;6.85;;;3.70;99.90;;;;;;5054749;28;20035;-78
2022/11/19 11:55:13;;;;;;;15.25;7.97;;;3.80;99.90;;;;;;5044730;28;20086;-78
2022/11/19 11:57:59;;;;;;;6.70;6.03;;;3.90;99.70;;;;;;5034073;28;20044;-79
2022/11/19 12:00:42;;;;;;;7.75;6.95;;;4.00;97.10;;;;;;5033747;28;20033;-78
2022/11/19 12:03:19;;;;;;;9.23;7.60;;;4.00;97.70;;;;;;5023423;28;20064;-78
2022/11/19 12:06:10;;;;;;;7.88;7.07;;;3.90;99.80;;;;;;5046246;28;20134;-78
2022/11/19 12:08:49;;;;;;;7.32;6.57;;;3.90;99.90;;;;;;5045164;28;20067;-78
2022/11/19 12:11:53;;;;;;;7.88;7.07;;;4.10;99.90;;;;;;5048103;28;20029;-79
2022/11/19 12:14:49;;;;;;;8.07;6.88;;;4.30;99.90;;;;;;5035995;28;20043;-79
2022/11/19 12:17:43;;;;;;;7.57;6.78;;;4.40;99.90;;;;;;5031771;28;20032;-78
2022/11/19 12:20:21;;;;;;;7.32;6.63;;;4.50;99.90;;;;;;5044626;28;20047;-78
2022/11/19 12:23:14;;;;;;;6.13;5.53;;;4.60;98.30;;;;;;5014954;28;20037;-78
2022/11/19 12:26:00;;;;;;;6.88;6.18;;;4.60;99.00;;;;;;5031396;28;20124;-78
2022/11/19 12:28:28;;;;;;;6.57;5.85;;;4.70;99.90;;;;;;5040341;28;20041;-78
2022/11/19 12:31:06;;;;;;;7.63;5.75;;;4.70;99.90;;;;;;5050719;28;20060;-78
2022/11/19 12:33:56;;;;;;;6.43;5.60;;;4.70;97.00;;;;;;5048045;28;20037;-79
2022/11/19 12:36:36;;;;;;;5.78;5.03;;;4.60;94.40;;;;;;5029260;28;20367;-78
2022/11/19 12:39:21;;;;;;;6.30;5.70;;;4.50;90.30;;;;;;5028786;28;20048;-78
2022/11/19 12:42:05;;;;;;;6.35;4.97;;;4.30;91.20;;;;;;5047109;28;20410;-78
2022/11/19 12:44:37;;;;;;;5.43;4.85;;;4.10;92.80;;;;;;5036188;28;20052;-78
2022/11/19 12:47:29;;;;;;;7.85;5.63;;;4.00;95.50;;;;;;5051439;28;20499;-78
2022/11/19 12:50:26;;;;;;;7.35;5.50;;;3.90;92.50;;;;;;5025665;28;20093;-78
2022/11/19 12:53:00;;;;;;;5.82;5.13;;;3.80;97.90;;;;;;5035473;28;20123;-78
2022/11/19 12:55:59;;;;;;;6.05;5.45;;;3.80;96.90;;;;;;5038640;28;20048;-78
2022/11/19 12:58:45;;;;;;;6.88;5.90;;;3.80;95.80;;;;;;5040989;28;20048;-79
2022/11/19 13:01:22;;;;;;;6.70;5.72;;;3.80;95.80;;;;;;5044070;28;20059;-78
2022/11/19 13:04:17;;;;;;;6.30;5.38;;;3.70;98.70;;;;;;5039731;28;20514;-78
2022/11/19 13:06:56;;;;;;;6.32;5.60;;;3.70;99.90;;;;;;5046414;28;20044;-80
2022/11/19 13:09:42;;;;;;;6.78;6.05;;;3.60;98.70;;;;;;5052825;28;20037;-80
2022/11/19 13:12:14;;;;;;;7.75;6.78;;;3.50;99.90;;;;;;5045324;28;20059;-80
2022/11/19 13:14:51;;;;;;;9.05;7.53;;;3.50;99.90;;;;;;5041485;28;20048;-79
2022/11/19 13:17:23;;;;;;;15.30;13.60;;;3.50;99.20;;;;;;5032077;28;20050;-79
2022/11/19 13:19:55;;;;;;;14.90;13.40;;;3.40;99.90;;;;;;5032409;28;20407;-80
2022/11/19 13:22:26;;;;;;;17.00;13.00;;;3.30;99.90;;;;;;5045130;28;20443;-80
2022/11/19 13:25:17;;;;;;;31.95;22.67;;;3.30;99.90;;;;;;5043786;28;20034;-80
2022/11/19 13:27:45;;;;;;;11.38;9.85;;;3.30;99.90;;;;;;5050821;28;20176;-80
2022/11/19 13:30:33;;;;;;;9.48;8.50;;;3.30;99.90;;;;;;5034454;28;20041;-79
2022/11/19 13:33:17;;;;;;;16.52;14.82;;;3.20;99.90;;;;;;5057718;28;20491;-80
2022/11/19 13:36:05;;;;;;;10.65;9.25;;;3.20;99.90;;;;;;5026125;28;20033;-80
2022/11/19 13:38:50;;;;;;;12.85;11.10;;;3.20;99.90;;;;;;5033887;28;20059;-80